Fort Severn Airport
CYER : rendu visible

Aérodrome :











RETROUVEZ-NOUS SUR...

 
LOGIN :

S'inscrire | Disclaimer

   EN    FR    IT 

 









Légende :    VFR   VFR Marginal   IFR   IFR Intensif   IFR Très Intensif
Visi : 
Plafond : 
>= 8 km
>= 3000ft
5 à 8 km
1000 à 3000 ft
1500m à 5 km
500 à 1000 ft
800 à 1500m
200 à 500 ft
< 800m
< 200 ft
Symboles :   Orages  Brouillard  Fortes neiges  Fortes précipitations  Vent > 20 kt






- Altitude de l'aérodrome : 48 ft
- Code IATA : YER


CYER - Fort Severn

DERNIER METAR :
  • 150709Z AUTO 29016G26KT 9SM BKN034 M18/M20 A2982 RMK SLP101

METARs EXPIRÉS :
  • 150702Z AUTO 29017G28KT 6SM -SN BKN030 M18/M20 A2981 RMK SLP099
  • 150647Z AUTO 29015G28KT 2 1/2SM -SN OVC022 M18/M20 A2980 RMK VIS VRB 1 3/4-3 SLP095
  • 150636Z AUTO 30019G30KT 1 1/2SM -SN OVC014 M17/M20 A2979 RMK SLP092
  • 150600Z AUTO 30017G29KT 3/4SM -SN OVC020 M17/M19 A2977 RMK SLP085
  • 150508Z AUTO 29017G33KT 5/8SM SN VV010 M17/M19 A2974 RMK SLP073
  • 150503Z AUTO 30020G33KT 3/8SM SN VV008 M17/M19 A2973 RMK PRESRR SLP071
  • 150435Z AUTO 29019G31KT 3/8SM SN VV007 M17/M19 A2971 RMK SLP064

Prévision TAF périmée.



MET'MAP, la Météo Aéronautique d'un coup d'oeil ! - Copyright ORBIFLY Décembre 2007 - Disclaimer

ORBIFLY MET'MAP TEAM :

Programmation & Développement : Alexandra Zaïnal
Conception & Développement : Baudouin d'Aumeries
Co-Programmation & Développement : Marc-Olivier Méhu
Soutien technique & logistique : Manuel Goepfert

Contact : metmap@orbifly.com




SOURCES & CREDITS :

   NOAA       Earth
Advisory